sensor_id;sensor_type;location;lat;lon;timestamp;P1;durP1;ratioP1;P2;durP2;ratioP2
24461;SDS011;12631;50.860;5.714;2022-10-31T00:02:21;14.65;;;7.93;;
24461;SDS011;12631;50.860;5.714;2022-10-31T00:04:48;13.80;;;8.25;;
24461;SDS011;12631;50.860;5.714;2022-10-31T00:07:16;20.83;;;8.80;;
24461;SDS011;12631;50.860;5.714;2022-10-31T00:09:43;10.05;;;7.57;;
24461;SDS011;12631;50.860;5.714;2022-10-31T00:12:11;12.00;;;8.25;;
24461;SDS011;12631;50.860;5.714;2022-10-31T00:14:38;14.23;;;8.57;;
24461;SDS011;12631;50.860;5.714;2022-10-31T00:17:05;9.15;;;8.07;;
24461;SDS011;12631;50.860;5.714;2022-10-31T00:19:32;13.95;;;7.50;;
24461;SDS011;12631;50.860;5.714;2022-10-31T00:22:00;11.88;;;7.30;;
24461;SDS011;12631;50.860;5.714;2022-10-31T00:24:27;10.98;;;7.75;;
24461;SDS011;12631;50.860;5.714;2022-10-31T00:26:54;11.82;;;7.30;;
24461;SDS011;12631;50.860;5.714;2022-10-31T00:29:22;10.85;;;6.47;;
24461;SDS011;12631;50.860;5.714;2022-10-31T00:31:49;9.23;;;7.05;;
24461;SDS011;12631;50.860;5.714;2022-10-31T00:34:18;15.05;;;7.13;;
24461;SDS011;12631;50.860;5.714;2022-10-31T00:36:45;12.20;;;6.93;;
24461;SDS011;12631;50.860;5.714;2022-10-31T00:39:12;10.73;;;7.40;;
24461;SDS011;12631;50.860;5.714;2022-10-31T00:41:39;9.77;;;7.60;;
24461;SDS011;12631;50.860;5.714;2022-10-31T00:44:06;14.25;;;6.85;;
24461;SDS011;12631;50.860;5.714;2022-10-31T00:46:35;14.45;;;7.45;;
24461;SDS011;12631;50.860;5.714;2022-10-31T00:49:02;17.70;;;8.27;;
24461;SDS011;12631;50.860;5.714;2022-10-31T00:51:29;18.02;;;7.35;;
24461;SDS011;12631;50.860;5.714;2022-10-31T00:53:56;11.68;;;7.60;;
24461;SDS011;12631;50.860;5.714;2022-10-31T00:56:23;11.70;;;7.10;;
24461;SDS011;12631;50.860;5.714;2022-10-31T00:58:50;14.45;;;6.97;;
24461;SDS011;12631;50.860;5.714;2022-10-31T01:01:17;15.48;;;6.35;;
24461;SDS011;12631;50.860;5.714;2022-10-31T01:03:46;10.80;;;6.55;;
24461;SDS011;12631;50.860;5.714;2022-10-31T01:06:13;8.77;;;6.30;;
24461;SDS011;12631;50.860;5.714;2022-10-31T01:08:41;7.15;;;6.13;;
24461;SDS011;12631;50.860;5.714;2022-10-31T01:11:10;8.45;;;5.82;;
24461;SDS011;12631;50.860;5.714;2022-10-31T01:13:39;10.43;;;6.28;;
24461;SDS011;12631;50.860;5.714;2022-10-31T01:16:07;9.57;;;6.30;;
24461;SDS011;12631;50.860;5.714;2022-10-31T01:18:36;9.40;;;6.55;;
24461;SDS011;12631;50.860;5.714;2022-10-31T01:21:05;9.00;;;6.20;;
24461;SDS011;12631;50.860;5.714;2022-10-31T01:23:34;9.52;;;6.25;;
24461;SDS011;12631;50.860;5.714;2022-10-31T01:26:06;10.38;;;6.13;;
24461;SDS011;12631;50.860;5.714;2022-10-31T01:28:35;10.88;;;6.70;;
24461;SDS011;12631;50.860;5.714;2022-10-31T01:31:06;13.77;;;6.85;;
24461;SDS011;12631;50.860;5.714;2022-10-31T01:33:34;11.48;;;7.03;;
24461;SDS011;12631;50.860;5.714;2022-10-31T01:36:11;10.25;;;6.07;;
24461;SDS011;12631;50.860;5.714;2022-10-31T01:38:40;11.43;;;6.32;;
24461;SDS011;12631;50.860;5.714;2022-10-31T01:41:07;10.50;;;6.72;;
24461;SDS011;12631;50.860;5.714;2022-10-31T01:43:43;8.48;;;6.25;;
24461;SDS011;12631;50.860;5.714;2022-10-31T01:46:20;16.25;;;6.38;;
24461;SDS011;12631;50.860;5.714;2022-10-31T01:48:51;14.10;;;6.90;;
24461;SDS011;12631;50.860;5.714;2022-10-31T01:51:23;13.60;;;6.22;;
24461;SDS011;12631;50.860;5.714;2022-10-31T01:53:55;13.70;;;6.90;;
24461;SDS011;12631;50.860;5.714;2022-10-31T01:56:26;13.70;;;6.97;;
24461;SDS011;12631;50.860;5.714;2022-10-31T01:58:54;11.50;;;7.18;;
24461;SDS011;12631;50.860;5.714;2022-10-31T02:01:22;10.85;;;6.82;;
24461;SDS011;12631;50.860;5.714;2022-10-31T02:03:50;14.77;;;7.80;;
24461;SDS011;12631;50.860;5.714;2022-10-31T02:06:20;10.93;;;8.75;;
24461;SDS011;12631;50.860;5.714;2022-10-31T02:08:54;17.98;;;8.65;;
24461;SDS011;12631;50.860;5.714;2022-10-31T02:11:23;11.43;;;8.30;;
24461;SDS011;12631;50.860;5.714;2022-10-31T02:13:51;17.35;;;7.60;;
24461;SDS011;12631;50.860;5.714;2022-10-31T02:16:18;11.70;;;7.60;;
24461;SDS011;12631;50.860;5.714;2022-10-31T02:18:45;12.63;;;7.90;;
24461;SDS011;12631;50.860;5.714;2022-10-31T02:21:15;8.10;;;7.25;;
24461;SDS011;12631;50.860;5.714;2022-10-31T02:23:51;14.03;;;7.63;;
24461;SDS011;12631;50.860;5.714;2022-10-31T02:26:43;17.90;;;7.95;;
24461;SDS011;12631;50.860;5.714;2022-10-31T02:29:32;13.35;;;7.82;;
24461;SDS011;12631;50.860;5.714;2022-10-31T02:32:21;12.75;;;7.28;;
24461;SDS011;12631;50.860;5.714;2022-10-31T02:34:55;13.02;;;7.82;;
24461;SDS011;12631;50.860;5.714;2022-10-31T02:37:26;12.82;;;7.25;;
24461;SDS011;12631;50.860;5.714;2022-10-31T02:40:03;19.48;;;7.53;;
24461;SDS011;12631;50.860;5.714;2022-10-31T02:42:37;13.38;;;8.05;;
24461;SDS011;12631;50.860;5.714;2022-10-31T02:47:40;19.15;;;7.50;;
24461;SDS011;12631;50.860;5.714;2022-10-31T02:50:11;11.93;;;7.53;;
24461;SDS011;12631;50.860;5.714;2022-10-31T02:52:41;17.00;;;8.35;;
24461;SDS011;12631;50.860;5.714;2022-10-31T02:55:09;10.88;;;7.95;;
24461;SDS011;12631;50.860;5.714;2022-10-31T02:57:37;13.63;;;7.95;;
24461;SDS011;12631;50.860;5.714;2022-10-31T03:00:07;12.05;;;7.93;;
24461;SDS011;12631;50.860;5.714;2022-10-31T03:05:28;11.15;;;8.52;;
24461;SDS011;12631;50.860;5.714;2022-10-31T03:08:06;10.95;;;9.48;;
24461;SDS011;12631;50.860;5.714;2022-10-31T03:10:41;12.05;;;8.35;;
24461;SDS011;12631;50.860;5.714;2022-10-31T03:13:16;17.27;;;9.15;;
24461;SDS011;12631;50.860;5.714;2022-10-31T03:15:51;10.52;;;8.23;;
24461;SDS011;12631;50.860;5.714;2022-10-31T03:18:23;13.95;;;8.07;;
24461;SDS011;12631;50.860;5.714;2022-10-31T03:23:23;14.57;;;9.52;;
24461;SDS011;12631;50.860;5.714;2022-10-31T03:25:51;10.55;;;8.45;;
24461;SDS011;12631;50.860;5.714;2022-10-31T03:28:22;11.10;;;7.93;;
24461;SDS011;12631;50.860;5.714;2022-10-31T03:30:54;10.95;;;7.43;;
24461;SDS011;12631;50.860;5.714;2022-10-31T03:33:26;17.33;;;8.25;;
24461;SDS011;12631;50.860;5.714;2022-10-31T03:35:57;10.87;;;7.77;;
24461;SDS011;12631;50.860;5.714;2022-10-31T03:38:28;13.73;;;8.23;;
24461;SDS011;12631;50.860;5.714;2022-10-31T03:40:58;11.95;;;7.75;;
24461;SDS011;12631;50.860;5.714;2022-10-31T03:43:28;15.63;;;8.90;;
24461;SDS011;12631;50.860;5.714;2022-10-31T03:45:59;12.85;;;7.95;;
24461;SDS011;12631;50.860;5.714;2022-10-31T03:48:27;18.10;;;8.00;;
24461;SDS011;12631;50.860;5.714;2022-10-31T03:50:57;14.77;;;7.72;;
24461;SDS011;12631;50.860;5.714;2022-10-31T03:53:34;10.90;;;7.72;;
24461;SDS011;12631;50.860;5.714;2022-10-31T03:56:07;14.13;;;8.00;;
24461;SDS011;12631;50.860;5.714;2022-10-31T03:58:39;17.60;;;7.93;;
24461;SDS011;12631;50.860;5.714;2022-10-31T04:01:13;17.45;;;7.03;;
24461;SDS011;12631;50.860;5.714;2022-10-31T04:03:45;14.80;;;7.85;;
24461;SDS011;12631;50.860;5.714;2022-10-31T04:06:13;9.75;;;8.05;;
24461;SDS011;12631;50.860;5.714;2022-10-31T04:08:44;13.27;;;7.97;;
24461;SDS011;12631;50.860;5.714;2022-10-31T04:11:14;15.80;;;7.88;;
24461;SDS011;12631;50.860;5.714;2022-10-31T04:13:45;15.30;;;8.30;;
24461;SDS011;12631;50.860;5.714;2022-10-31T04:16:14;16.58;;;7.90;;
24461;SDS011;12631;50.860;5.714;2022-10-31T04:18:42;9.65;;;7.88;;
24461;SDS011;12631;50.860;5.714;2022-10-31T04:21:11;15.45;;;7.32;;
24461;SDS011;12631;50.860;5.714;2022-10-31T04:23:38;15.50;;;8.70;;
24461;SDS011;12631;50.860;5.714;2022-10-31T04:26:05;14.68;;;8.25;;
24461;SDS011;12631;50.860;5.714;2022-10-31T04:28:32;11.48;;;7.00;;
24461;SDS011;12631;50.860;5.714;2022-10-31T04:30:59;10.13;;;9.15;;
24461;SDS011;12631;50.860;5.714;2022-10-31T04:33:26;10.07;;;7.55;;
24461;SDS011;12631;50.860;5.714;2022-10-31T04:35:54;10.85;;;8.45;;
24461;SDS011;12631;50.860;5.714;2022-10-31T04:38:22;10.38;;;8.05;;
24461;SDS011;12631;50.860;5.714;2022-10-31T04:40:49;12.35;;;8.57;;
24461;SDS011;12631;50.860;5.714;2022-10-31T04:43:17;14.32;;;9.00;;
24461;SDS011;12631;50.860;5.714;2022-10-31T04:45:44;11.25;;;8.57;;
24461;SDS011;12631;50.860;5.714;2022-10-31T04:48:11;18.33;;;8.05;;
24461;SDS011;12631;50.860;5.714;2022-10-31T04:50:38;9.77;;;8.55;;
24461;SDS011;12631;50.860;5.714;2022-10-31T04:53:06;10.32;;;7.05;;
24461;SDS011;12631;50.860;5.714;2022-10-31T04:55:34;10.73;;;8.32;;
24461;SDS011;12631;50.860;5.714;2022-10-31T04:58:02;12.30;;;8.32;;
24461;SDS011;12631;50.860;5.714;2022-10-31T05:00:29;12.52;;;9.02;;
24461;SDS011;12631;50.860;5.714;2022-10-31T05:02:57;9.40;;;8.50;;
24461;SDS011;12631;50.860;5.714;2022-10-31T05:05:25;13.23;;;9.18;;
24461;SDS011;12631;50.860;5.714;2022-10-31T05:07:54;14.85;;;8.93;;
24461;SDS011;12631;50.860;5.714;2022-10-31T05:10:22;12.27;;;8.32;;
24461;SDS011;12631;50.860;5.714;2022-10-31T05:12:52;13.70;;;9.95;;
24461;SDS011;12631;50.860;5.714;2022-10-31T05:15:21;13.50;;;9.57;;
24461;SDS011;12631;50.860;5.714;2022-10-31T05:17:50;15.63;;;10.30;;
24461;SDS011;12631;50.860;5.714;2022-10-31T05:20:19;11.07;;;8.23;;
24461;SDS011;12631;50.860;5.714;2022-10-31T05:22:48;14.50;;;8.93;;
24461;SDS011;12631;50.860;5.714;2022-10-31T05:25:17;14.18;;;8.77;;
24461;SDS011;12631;50.860;5.714;2022-10-31T05:27:46;18.30;;;10.77;;
24461;SDS011;12631;50.860;5.714;2022-10-31T05:30:16;15.13;;;9.27;;
24461;SDS011;12631;50.860;5.714;2022-10-31T05:32:46;11.93;;;8.70;;
24461;SDS011;12631;50.860;5.714;2022-10-31T05:35:15;10.43;;;8.18;;
24461;SDS011;12631;50.860;5.714;2022-10-31T05:37:43;12.30;;;8.60;;
24461;SDS011;12631;50.860;5.714;2022-10-31T05:40:11;20.60;;;9.07;;
24461;SDS011;12631;50.860;5.714;2022-10-31T05:42:40;10.35;;;8.80;;
24461;SDS011;12631;50.860;5.714;2022-10-31T05:45:09;17.15;;;9.45;;
24461;SDS011;12631;50.860;5.714;2022-10-31T05:47:39;12.60;;;8.60;;
24461;SDS011;12631;50.860;5.714;2022-10-31T05:50:07;11.63;;;8.07;;
24461;SDS011;12631;50.860;5.714;2022-10-31T05:52:35;10.80;;;8.80;;
24461;SDS011;12631;50.860;5.714;2022-10-31T05:55:02;15.50;;;10.13;;
24461;SDS011;12631;50.860;5.714;2022-10-31T05:57:31;14.32;;;8.68;;
24461;SDS011;12631;50.860;5.714;2022-10-31T05:59:58;10.07;;;7.53;;
24461;SDS011;12631;50.860;5.714;2022-10-31T06:02:26;14.50;;;8.75;;
24461;SDS011;12631;50.860;5.714;2022-10-31T06:04:58;10.15;;;7.97;;
24461;SDS011;12631;50.860;5.714;2022-10-31T06:07:25;11.52;;;10.32;;
24461;SDS011;12631;50.860;5.714;2022-10-31T06:09:52;13.20;;;11.90;;
24461;SDS011;12631;50.860;5.714;2022-10-31T06:12:19;16.38;;;9.38;;
24461;SDS011;12631;50.860;5.714;2022-10-31T06:14:46;16.95;;;11.70;;
24461;SDS011;12631;50.860;5.714;2022-10-31T06:17:13;11.55;;;10.23;;
24461;SDS011;12631;50.860;5.714;2022-10-31T06:19:41;11.95;;;8.75;;
24461;SDS011;12631;50.860;5.714;2022-10-31T06:22:09;18.10;;;13.10;;
24461;SDS011;12631;50.860;5.714;2022-10-31T06:24:37;12.10;;;10.93;;
24461;SDS011;12631;50.860;5.714;2022-10-31T06:27:04;12.18;;;11.10;;
24461;SDS011;12631;50.860;5.714;2022-10-31T06:29:32;16.23;;;9.73;;
24461;SDS011;12631;50.860;5.714;2022-10-31T06:31:59;20.48;;;8.93;;
24461;SDS011;12631;50.860;5.714;2022-10-31T06:34:26;12.63;;;10.05;;
24461;SDS011;12631;50.860;5.714;2022-10-31T06:36:53;20.85;;;9.02;;
24461;SDS011;12631;50.860;5.714;2022-10-31T06:39:22;13.60;;;9.13;;
24461;SDS011;12631;50.860;5.714;2022-10-31T06:41:49;12.15;;;9.32;;
24461;SDS011;12631;50.860;5.714;2022-10-31T06:44:16;19.90;;;9.75;;
24461;SDS011;12631;50.860;5.714;2022-10-31T06:46:45;13.35;;;9.48;;
24461;SDS011;12631;50.860;5.714;2022-10-31T06:49:13;17.45;;;9.20;;
24461;SDS011;12631;50.860;5.714;2022-10-31T06:51:40;16.40;;;10.13;;
24461;SDS011;12631;50.860;5.714;2022-10-31T06:54:08;16.98;;;10.13;;
24461;SDS011;12631;50.860;5.714;2022-10-31T06:56:37;18.92;;;12.00;;
24461;SDS011;12631;50.860;5.714;2022-10-31T06:59:04;16.83;;;12.15;;
24461;SDS011;12631;50.860;5.714;2022-10-31T07:01:31;14.40;;;10.73;;
24461;SDS011;12631;50.860;5.714;2022-10-31T07:03:59;11.82;;;8.75;;
24461;SDS011;12631;50.860;5.714;2022-10-31T07:06:27;11.77;;;9.43;;
24461;SDS011;12631;50.860;5.714;2022-10-31T07:08:54;17.30;;;9.13;;
24461;SDS011;12631;50.860;5.714;2022-10-31T07:11:21;14.25;;;9.10;;
24461;SDS011;12631;50.860;5.714;2022-10-31T07:13:50;12.00;;;9.70;;
24461;SDS011;12631;50.860;5.714;2022-10-31T07:16:17;17.63;;;10.18;;
24461;SDS011;12631;50.860;5.714;2022-10-31T07:18:44;13.30;;;10.40;;
24461;SDS011;12631;50.860;5.714;2022-10-31T07:21:11;11.82;;;8.95;;
24461;SDS011;12631;50.860;5.714;2022-10-31T07:23:38;12.38;;;9.10;;
24461;SDS011;12631;50.860;5.714;2022-10-31T07:26:06;16.85;;;7.25;;
24461;SDS011;12631;50.860;5.714;2022-10-31T07:28:34;13.93;;;7.95;;
24461;SDS011;12631;50.860;5.714;2022-10-31T07:31:02;12.95;;;8.85;;
24461;SDS011;12631;50.860;5.714;2022-10-31T07:33:30;13.50;;;8.15;;
24461;SDS011;12631;50.860;5.714;2022-10-31T07:35:57;13.25;;;7.75;;
24461;SDS011;12631;50.860;5.714;2022-10-31T07:38:24;14.18;;;8.20;;
24461;SDS011;12631;50.860;5.714;2022-10-31T07:40:51;12.85;;;7.65;;
24461;SDS011;12631;50.860;5.714;2022-10-31T07:43:19;15.73;;;9.13;;
24461;SDS011;12631;50.860;5.714;2022-10-31T07:45:49;11.48;;;8.50;;
24461;SDS011;12631;50.860;5.714;2022-10-31T07:48:18;11.68;;;8.55;;
24461;SDS011;12631;50.860;5.714;2022-10-31T07:50:46;9.48;;;7.93;;
24461;SDS011;12631;50.860;5.714;2022-10-31T07:53:13;12.90;;;8.23;;
24461;SDS011;12631;50.860;5.714;2022-10-31T07:55:41;10.68;;;8.02;;
24461;SDS011;12631;50.860;5.714;2022-10-31T07:58:09;11.80;;;8.05;;
24461;SDS011;12631;50.860;5.714;2022-10-31T08:00:38;12.05;;;8.02;;
24461;SDS011;12631;50.860;5.714;2022-10-31T08:03:07;11.23;;;8.02;;
24461;SDS011;12631;50.860;5.714;2022-10-31T08:05:37;14.68;;;9.00;;
24461;SDS011;12631;50.860;5.714;2022-10-31T08:08:06;13.63;;;9.07;;
24461;SDS011;12631;50.860;5.714;2022-10-31T08:10:34;14.30;;;8.38;;
24461;SDS011;12631;50.860;5.714;2022-10-31T08:13:02;14.07;;;9.13;;
24461;SDS011;12631;50.860;5.714;2022-10-31T08:15:31;13.60;;;10.02;;
24461;SDS011;12631;50.860;5.714;2022-10-31T08:17:59;15.70;;;9.85;;
24461;SDS011;12631;50.860;5.714;2022-10-31T08:20:28;14.07;;;9.98;;
24461;SDS011;12631;50.860;5.714;2022-10-31T08:22:57;14.20;;;9.77;;
24461;SDS011;12631;50.860;5.714;2022-10-31T08:25:26;12.68;;;9.50;;
24461;SDS011;12631;50.860;5.714;2022-10-31T08:27:54;21.05;;;9.32;;
24461;SDS011;12631;50.860;5.714;2022-10-31T08:30:23;14.93;;;8.98;;
24461;SDS011;12631;50.860;5.714;2022-10-31T08:32:59;17.67;;;9.73;;
24461;SDS011;12631;50.860;5.714;2022-10-31T08:35:27;15.57;;;9.02;;
24461;SDS011;12631;50.860;5.714;2022-10-31T08:37:54;14.20;;;9.30;;
24461;SDS011;12631;50.860;5.714;2022-10-31T08:40:24;16.92;;;9.95;;
24461;SDS011;12631;50.860;5.714;2022-10-31T08:42:56;14.80;;;9.32;;
24461;SDS011;12631;50.860;5.714;2022-10-31T08:45:24;20.75;;;10.25;;
24461;SDS011;12631;50.860;5.714;2022-10-31T08:47:52;15.98;;;10.07;;
24461;SDS011;12631;50.860;5.714;2022-10-31T08:50:22;19.08;;;10.20;;
24461;SDS011;12631;50.860;5.714;2022-10-31T08:52:50;17.20;;;10.70;;
24461;SDS011;12631;50.860;5.714;2022-10-31T23:52:49;8.25;;;5.60;;
24461;SDS011;12631;50.860;5.714;2022-10-31T23:55:17;6.35;;;2.45;;
24461;SDS011;12631;50.860;5.714;2022-10-31T23:57:44;4.65;;;3.00;;
